ADDS METAR Data INFO
IDs: Format: Raw Decoded Include TAF

Data at: 0257 UTC 21 Oct 2017

KCGS 210245Z AUTO 00000KT 10SM CLR 11/10 A3024 RMK AO1 T01050095
KCGS 210225Z AUTO 00000KT 10SM CLR 11/09 A3025 RMK AO1 T01060094
KCGS 210205Z AUTO 00000KT 10SM CLR 11/10 A3024 RMK AO1 T01100097
KCGS 210145Z AUTO 00000KT 10SM CLR 11/10 A3024 RMK AO1 T01140096
KCGS 210125Z AUTO 00000KT 10SM CLR 12/10 A3023 RMK AO1 T01160099
KCGS 210105Z AUTO 00000KT 10SM CLR 12/10 A3022 RMK AO1 T01170095
KCGS 210045Z AUTO 00000KT 10SM CLR 13/10 A3022 RMK AO1 T01270097
KCGS 210025Z AUTO 00000KT 10SM CLR 12/10 A3022 RMK AO1 T01240097
KCGS 210005Z AUTO 00000KT 10SM CLR 13/10 A3021 RMK AO1 T01330100
KCGS 202345Z AUTO 00000KT 10SM CLR 14/10 A3022 RMK AO1 T01410101
KCGS 202325Z AUTO 00000KT 10SM CLR 14/10 A3022 RMK AO1 T01420099
KCGS 202305Z AUTO 00000KT 10SM CLR 16/10 A3021 RMK AO1 T01560102
KCGS 202245Z AUTO 00000KT 10SM CLR 16/10 A3020 RMK AO1 T01640099
KCGS 202225Z AUTO 00000KT 10SM CLR 17/10 A3020 RMK AO1 T01690103
KCGS 202205Z AUTO 00000KT 10SM CLR 19/10 A3019 RMK AO1 T01930095
KCGS 202145Z AUTO 00000KT 10SM CLR 22/07 A3019 RMK AO1 T02150070
KCGS 202125Z AUTO 33004KT 10SM CLR 22/07 A3018 RMK AO1 T02230068
KCGS 202105Z AUTO 32004KT 10SM CLR 23/07 A3018 RMK AO1 T02270065
KCGS 202045Z AUTO 29006KT 10SM CLR 23/08 A3018 RMK AO1 T02300077
KCGS 202025Z AUTO 31006KT 10SM CLR 23/07 A3018 RMK AO1 T02330073
KCGS 202005Z AUTO 32004KT 10SM CLR 23/06 A3018 RMK AO1 T02340064
KCGS 201945Z AUTO 33006KT 10SM CLR 24/07 A3018 RMK AO1 T02350071
KCGS 201925Z AUTO 35005KT 10SM CLR 23/06 A3018 RMK AO1 T02330063
KCGS 201905Z AUTO 32004KT 10SM CLR 23/08 A3019 RMK AO1 T02330077
KCGS 201845Z AUTO 27004KT 10SM CLR 23/08 A3019 RMK AO1 T02300082
KCGS 201825Z AUTO 29006KT 10SM CLR 23/08 A3020 RMK AO1 T02260081
KCGS 201805Z AUTO 26005KT 10SM CLR 23/09 A3020 RMK AO1 T02290085
KCGS 201745Z AUTO 34004KT 10SM CLR 23/08 A3021 RMK AO1 T02260079
KCGS 201725Z AUTO 31005KT 10SM CLR 23/08 A3022 RMK AO1 T02250075
KCGS 201705Z AUTO 33004KT 10SM CLR 22/09 A3023 RMK AO1 T02240089
KCGS 201645Z AUTO 35006KT 10SM SCT120 22/09 A3023 RMK AO1 T02190090
KCGS 201625Z AUTO 36006KT 10SM CLR 22/10 A3024 RMK AO1 T02170096
KCGS 201605Z AUTO 34004KT 10SM CLR 22/10 A3025 RMK AO1 T02170101
KCGS 201545Z AUTO 33006KT 10SM CLR 21/10 A3025 RMK AO1 T02080101
KCGS 201525Z AUTO 32006KT 10SM CLR 21/10 A3025 RMK AO1 T02070101
KCGS 201505Z AUTO 32009KT 10SM CLR 21/10 A3025 RMK AO1 T02060099
KCGS 201445Z AUTO 32007KT 10SM CLR 20/10 A3025 RMK AO1 T02040101
KCGS 201425Z AUTO 31009KT 10SM CLR 20/10 A3024 RMK AO1 T01990099
KCGS 201405Z AUTO 32005KT 10SM CLR 19/10 A3024 RMK AO1 T01910097
KCGS 201345Z AUTO 32004KT 10SM CLR 18/10 A3024 RMK AO1 T01820102
KCGS 201325Z AUTO 00000KT 10SM CLR 16/13 A3024 RMK AO1 T01560125
KCGS 201305Z AUTO 00000KT 10SM CLR 14/12 A3023 RMK AO1 T01350118
KCGS 201245Z AUTO 00000KT 10SM CLR 12/11 A3023 RMK AO1 T01220109
KCGS 201225Z AUTO 00000KT 10SM CLR 10/10 A3023 RMK AO1 T01040095
KCGS 201205Z AUTO 00000KT 10SM CLR 09/09 A3022 RMK AO1 T00930087
KCGS 201145Z AUTO 00000KT 10SM CLR 09/08 A3021 RMK AO1 T00860078
KCGS 201125Z AUTO 00000KT 10SM CLR 09/08 A3021 RMK AO1 T00860080
KCGS 201105Z AUTO 00000KT 10SM CLR 09/08 A3020 RMK AO1 T00850080
KCGS 201045Z AUTO 00000KT 10SM CLR 09/08 A3020 RMK AO1 T00860080
KCGS 201025Z AUTO 00000KT 10SM CLR 09/08 A3020 RMK AO1 T00860080
KCGS 201005Z AUTO 00000KT 10SM CLR 09/08 A3019 RMK AO1 T00860079
KCGS 200945Z AUTO 00000KT 10SM CLR 09/08 A3018 RMK AO1 T00850078
KCGS 200925Z AUTO 00000KT 10SM CLR 08/08 A3017 RMK AO1 T00830077
KCGS 200905Z AUTO 00000KT 10SM CLR 08/08 A3017 RMK AO1 T00800075
KCGS 200845Z AUTO 00000KT 10SM CLR 09/08 A3017 RMK AO1 T00850077
KCGS 200825Z AUTO 00000KT 10SM CLR 08/08 A3016 RMK AO1 T00830077
KCGS 200805Z AUTO 00000KT 10SM CLR 08/08 A3016 RMK AO1 T00840079
KCGS 200745Z AUTO 00000KT 10SM CLR 08/08 A3016 RMK AO1 T00830078
KCGS 200725Z AUTO 00000KT 10SM CLR 08/08 A3016 RMK AO1 T00820077
KCGS 200705Z AUTO 00000KT 10SM CLR 08/08 A3016 RMK AO1 T00830077
KCGS 200645Z AUTO 00000KT 10SM CLR 08/08 A3016 RMK AO1 T00840079
KCGS 200625Z AUTO 00000KT 10SM CLR 09/08 A3016 RMK AO1 T00850080
KCGS 200605Z AUTO 00000KT 10SM CLR 08/08 A3016 RMK AO1 T00810075
KCGS 200545Z AUTO 00000KT 10SM CLR 09/08 A3016 RMK AO1 T00850080
KCGS 200525Z AUTO 00000KT 10SM CLR 08/08 A3017 RMK AO1 T00840078
KCGS 200505Z AUTO 00000KT 10SM CLR 09/08 A3017 RMK AO1 T00850080
KCGS 200445Z AUTO 00000KT 10SM CLR 09/08 A3017 RMK AO1 T00890084
KCGS 200425Z AUTO 00000KT 10SM CLR 09/08 A3017 RMK AO1 T00880083
KCGS 200405Z AUTO 00000KT 10SM CLR 09/09 A3017 RMK AO1 T00900085
KCGS 200345Z AUTO 00000KT 10SM CLR 09/09 A3017 RMK AO1 T00910086
KCGS 200325Z AUTO 00000KT 10SM CLR 09/09 A3016 RMK AO1 T00920085
KCGS 200305Z AUTO 00000KT 10SM CLR 10/09 A3016 RMK AO1 T00950088
KCGS 200245Z AUTO 00000KT 10SM CLR 10/09 A3016 RMK AO1 T00970091
KCGS 200225Z AUTO 00000KT 10SM CLR 10/09 A3015 RMK AO1 T00960089
KCGS 200205Z AUTO 00000KT 10SM CLR 10/09 A3015 RMK AO1 T00990088
KCGS 200145Z AUTO 00000KT 10SM CLR 10/09 A3015 RMK AO1 T01030090
KCGS 200125Z AUTO 00000KT 10SM CLR 10/09 A3016 RMK AO1 T01030091
KCGS 200105Z AUTO 00000KT 10SM CLR 11/09 A3015 RMK AO1 T01070090
KCGS 200045Z AUTO 00000KT 10SM CLR 11/09 A3015 RMK AO1 T01110090
KCGS 200025Z AUTO 00000KT 10SM CLR 12/09 A3015 RMK AO1 T01150094
KCGS 200005Z AUTO 00000KT 10SM CLR 12/09 A3015 RMK AO1 T01160092
KCGS 192345Z AUTO 00000KT 10SM CLR 12/09 A3015 RMK AO1 T01220092
KCGS 192325Z AUTO 00000KT 10SM CLR 13/09 A3015 RMK AO1 T01260090
KCGS 192305Z AUTO 00000KT 10SM CLR 14/10 A3014 RMK AO1 T01400095
KCGS 192245Z AUTO 00000KT 10SM CLR 15/10 A3014 RMK AO1 T01490095
KCGS 192225Z AUTO 00000KT 10SM CLR 17/08 A3014 RMK AO1 T01660082
KCGS 192205Z AUTO 00000KT 10SM CLR 20/06 A3015 RMK AO1 T01990059
KCGS 192145Z AUTO 17004KT 10SM CLR 21/07 A3015 RMK AO1 T02060065
KCGS 192125Z AUTO 19003KT 10SM CLR 21/07 A3015 RMK AO1 T02140071
KCGS 192105Z AUTO 18003KT 10SM CLR 22/07 A3015 RMK AO1 T02150074
KCGS 192045Z AUTO 20003KT 10SM CLR 22/08 A3015 RMK AO1 T02170076
KCGS 192025Z AUTO 17004KT 10SM CLR 22/08 A3015 RMK AO1 T02190076
KCGS 192005Z AUTO 18003KT 10SM CLR 22/07 A3016 RMK AO1 T02200074
KCGS 191945Z AUTO 18003KT 10SM CLR 22/07 A3016 RMK AO1 T02210071
KCGS 191925Z AUTO 17004KT 10SM CLR 22/07 A3017 RMK AO1 T02170070
KCGS 191905Z AUTO 15004KT 10SM CLR 22/07 A3018 RMK AO1 T02150070
KCGS 191845Z AUTO 14004KT 10SM CLR 21/08 A3018 RMK AO1 T02130075
KCGS 191825Z AUTO 00000KT 10SM CLR 21/07 A3019 RMK AO1 T02110070
KCGS 191805Z AUTO 00000KT 10SM CLR 21/07 A3020 RMK AO1 T02090070
KCGS 191745Z AUTO 21004KT 10SM CLR 20/07 A3021 RMK AO1 T02030069
KCGS 191725Z AUTO 00000KT 10SM CLR 20/07 A3022 RMK AO1 T02000067
KCGS 191705Z AUTO 22005KT 10SM CLR 20/06 A3023 RMK AO1 T01960064
KCGS 191645Z AUTO 19005KT 10SM CLR 20/07 A3024 RMK AO1 T01950065
KCGS 191625Z AUTO 21004KT 10SM SCT110 19/06 A3025 RMK AO1 T01900064
KCGS 191605Z AUTO 21004KT 10SM CLR 19/06 A3025 RMK AO1 T01850061
KCGS 191545Z AUTO 22004KT 10SM CLR 18/07 A3027 RMK AO1 T01810069
KCGS 191525Z AUTO 20003KT 10SM CLR 17/07 A3027 RMK AO1 T01730071
KCGS 191505Z AUTO 22004KT 10SM CLR 17/07 A3027 RMK AO1 T01660072